createdAt,value
2023-05-05T00:00:29.930Z,72.31
2023-05-05T00:01:30.262Z,72.34
2023-05-05T00:03:35.743Z,72.37
2023-05-05T00:04:50.525Z,72.46
2023-05-05T00:13:55.832Z,73.02
2023-05-05T00:14:57.271Z,72.93
2023-05-05T00:15:59.031Z,72.9
2023-05-05T00:17:00.824Z,72.84
2023-05-05T00:18:02.500Z,72.83
2023-05-05T00:19:04.207Z,72.82
2023-05-05T00:20:06.126Z,72.89
2023-05-05T00:21:07.745Z,73.01
2023-05-05T00:22:09.410Z,73.12
2023-05-05T00:23:11.244Z,73.22
2023-05-05T00:24:12.879Z,73.48
2023-05-05T00:25:14.617Z,73.44
2023-05-05T00:26:16.348Z,73.55
2023-05-05T00:27:18.067Z,73.62
2023-05-05T00:28:19.842Z,73.77
2023-05-05T00:29:21.544Z,73.91
2023-05-05T00:30:23.312Z,74.02
2023-05-05T00:31:25.054Z,74.19
2023-05-05T00:32:26.758Z,74.24
2023-05-05T00:33:28.500Z,74.34
2023-05-05T00:34:30.243Z,74.35
2023-05-05T00:35:31.974Z,74.84
2023-05-05T00:36:33.692Z,74.26
2023-05-05T00:37:35.422Z,74.2
2023-05-05T00:38:37.180Z,74.42
2023-05-05T00:39:38.900Z,74.53
2023-05-05T00:40:40.632Z,74.74
2023-05-05T00:41:42.381Z,74.6
2023-05-05T00:42:44.106Z,74.63
2023-05-05T00:43:45.829Z,74.52
2023-05-05T00:44:47.553Z,74.32
2023-05-05T00:45:49.311Z,74.23
2023-05-05T00:46:51.249Z,74.34
2023-05-05T00:47:52.788Z,74.51
2023-05-05T00:48:54.547Z,74.57
2023-05-05T00:49:56.235Z,74.99
2023-05-05T00:50:57.978Z,75.46
2023-05-05T00:51:59.699Z,75.22
2023-05-05T00:53:01.439Z,75.5
2023-05-05T00:54:03.153Z,75.54
2023-05-05T00:55:04.906Z,75.27
2023-05-05T00:56:06.641Z,75.68
2023-05-05T00:57:08.372Z,75.37
2023-05-05T00:58:10.146Z,75.76
2023-05-05T00:59:11.812Z,76.03
2023-05-05T01:00:13.596Z,75.99
2023-05-05T01:01:15.407Z,75.79
2023-05-05T01:02:17.036Z,75.77
2023-05-05T01:03:18.863Z,75.68
2023-05-05T01:04:20.530Z,75.83
2023-05-05T01:05:22.234Z,75.76
2023-05-05T01:06:23.994Z,75.8
2023-05-05T01:07:25.712Z,75.97
2023-05-05T01:08:27.446Z,76.15
2023-05-05T01:09:29.189Z,75.9
2023-05-05T01:10:31.046Z,76.14
2023-05-05T01:11:32.638Z,76.03
2023-05-05T01:12:34.424Z,76.14
2023-05-05T01:13:36.097Z,76.48
2023-05-05T01:14:37.831Z,76.63
2023-05-05T01:15:39.580Z,76.94
2023-05-05T01:16:41.353Z,77.19
2023-05-05T01:17:43.077Z,77.21
2023-05-05T01:18:44.764Z,77.11
2023-05-05T01:19:46.537Z,77.25
2023-05-05T01:20:48.236Z,77.2
2023-05-05T01:21:50.002Z,77.37
2023-05-05T01:22:51.691Z,77.51
2023-05-05T01:23:53.454Z,77.67
2023-05-05T01:24:55.195Z,77.71
2023-05-05T01:25:56.962Z,78.53
2023-05-05T01:26:58.637Z,79.93
2023-05-05T01:28:00.382Z,80.42
2023-05-05T01:29:02.147Z,81.91
2023-05-05T01:30:03.839Z,83.33
2023-05-05T01:31:05.604Z,83.37
2023-05-05T01:32:07.301Z,83.41
2023-05-05T01:33:09.047Z,83.75
2023-05-05T01:34:10.768Z,84.49
2023-05-05T01:35:12.516Z,85.73
2023-05-05T01:36:14.248Z,85.86
2023-05-05T01:37:15.988Z,86.62
2023-05-05T01:38:17.724Z,87.08
2023-05-05T01:39:19.449Z,87.73
2023-05-05T01:40:21.199Z,87.77
2023-05-05T01:41:22.926Z,88.07
2023-05-05T01:42:24.649Z,88.72
2023-05-05T01:43:26.394Z,88.8
2023-05-05T01:44:28.123Z,89.64
2023-05-05T01:45:29.891Z,89.46
2023-05-05T01:46:31.563Z,90.03
2023-05-05T01:47:33.332Z,90.36
2023-05-05T01:48:35.043Z,91.34
2023-05-05T01:49:36.769Z,91.89
2023-05-05T01:50:38.531Z,92.16
2023-05-05T01:51:40.244Z,92.76
2023-05-05T01:52:41.977Z,93.49
2023-05-05T01:53:43.725Z,94.75
2023-05-05T01:54:45.441Z,95.38
2023-05-05T01:55:47.184Z,96.62
2023-05-05T01:56:48.906Z,98.79
2023-05-05T01:57:50.651Z,99.68
2023-05-05T01:58:52.376Z,99.62
2023-05-05T01:59:54.124Z,99.32
2023-05-05T02:00:55.846Z,99.74
2023-05-05T02:01:58.091Z,99.86
2023-05-05T02:02:59.427Z,100
2023-05-05T02:04:01.049Z,100
2023-05-05T02:05:02.787Z,100
2023-05-05T02:06:04.535Z,100
2023-05-05T02:07:06.265Z,100
2023-05-05T02:08:07.957Z,100
2023-05-05T02:09:09.780Z,100
2023-05-05T02:10:11.436Z,100
2023-05-05T02:11:13.172Z,100
2023-05-05T02:12:14.917Z,100
2023-05-05T02:13:16.793Z,100
2023-05-05T02:14:18.392Z,100
2023-05-05T02:15:20.142Z,100
2023-05-05T02:16:21.920Z,100
2023-05-05T02:17:23.778Z,100
2023-05-05T02:18:25.327Z,100
2023-05-05T02:19:27.054Z,100
2023-05-05T02:20:28.790Z,100
2023-05-05T02:21:30.547Z,100
2023-05-05T02:22:32.259Z,100
2023-05-05T02:23:34.005Z,100
2023-05-05T02:24:35.781Z,100
2023-05-05T02:25:37.500Z,100
2023-05-05T02:26:39.194Z,100
2023-05-05T02:27:40.953Z,100
2023-05-05T02:28:42.691Z,100
2023-05-05T02:29:44.394Z,100
2023-05-05T02:30:46.145Z,100
2023-05-05T02:31:48.027Z,100
2023-05-05T02:32:49.865Z,100
2023-05-05T02:33:51.347Z,100
2023-05-05T02:34:53.072Z,100
2023-05-05T02:35:54.810Z,100
2023-05-05T02:36:56.533Z,100
2023-05-05T02:37:58.263Z,100
2023-05-05T02:38:59.994Z,100
2023-05-05T02:40:01.761Z,100
2023-05-05T02:41:03.470Z,100
2023-05-05T02:42:05.210Z,100
2023-05-05T02:43:06.984Z,100
2023-05-05T02:44:08.670Z,100
2023-05-05T02:45:10.424Z,100
2023-05-05T02:46:12.325Z,100
2023-05-05T02:47:13.863Z,100
2023-05-05T02:48:15.598Z,100
2023-05-05T02:49:17.351Z,100
2023-05-05T02:50:19.085Z,100
2023-05-05T02:51:20.803Z,100
2023-05-05T02:52:22.548Z,100
2023-05-05T02:53:24.279Z,100
2023-05-05T02:54:25.996Z,100
2023-05-05T02:55:27.757Z,100
2023-05-05T02:56:29.486Z,100
2023-05-05T02:57:31.223Z,100
2023-05-05T02:58:32.954Z,100
2023-05-05T02:59:34.770Z,100
2023-05-05T03:00:36.423Z,100
2023-05-05T03:01:38.201Z,100
2023-05-05T03:02:40.048Z,100
2023-05-05T03:03:41.756Z,100
2023-05-05T03:04:43.338Z,100
2023-05-05T03:05:45.076Z,100
2023-05-05T03:06:46.823Z,100
2023-05-05T03:07:48.514Z,100
2023-05-05T03:08:50.292Z,100
2023-05-05T03:09:52.026Z,100
2023-05-05T03:10:53.744Z,100
2023-05-05T03:11:55.495Z,100
2023-05-05T03:12:57.254Z,100
2023-05-05T03:13:58.962Z,100
2023-05-05T03:15:00.685Z,100
2023-05-05T03:16:02.444Z,100
2023-05-05T03:17:04.155Z,100
2023-05-05T03:18:05.939Z,100
2023-05-05T03:19:07.632Z,100
2023-05-05T03:20:09.464Z,100
2023-05-05T03:21:11.088Z,100
2023-05-05T03:22:12.824Z,100
2023-05-05T03:23:14.569Z,100
2023-05-05T03:24:16.291Z,100
2023-05-05T03:25:18.022Z,100
2023-05-05T03:26:19.762Z,100
2023-05-05T03:27:21.533Z,100
2023-05-05T03:28:23.233Z,100
2023-05-05T03:29:24.974Z,100
2023-05-05T03:30:26.690Z,100
2023-05-05T03:31:28.674Z,100
2023-05-05T03:32:30.182Z,100
2023-05-05T03:33:31.911Z,100
2023-05-05T03:34:33.634Z,100
2023-05-05T03:35:35.366Z,100
2023-05-05T03:36:37.117Z,100
2023-05-05T03:37:38.830Z,100
2023-05-05T03:38:40.566Z,100
2023-05-05T03:39:42.299Z,100
2023-05-05T03:40:44.844Z,100
2023-05-05T03:41:45.772Z,100
2023-05-05T03:42:47.521Z,100
2023-05-05T03:43:49.237Z,100
2023-05-05T03:44:50.963Z,100
2023-05-05T03:45:52.731Z,100
2023-05-05T03:46:54.456Z,100
2023-05-05T03:47:56.222Z,100
2023-05-05T03:48:57.890Z,100
2023-05-05T03:49:59.652Z,100
2023-05-05T03:51:01.381Z,100
2023-05-05T03:52:03.102Z,100
2023-05-05T03:53:04.918Z,100
2023-05-05T03:54:06.565Z,100
2023-05-05T03:55:08.312Z,100
2023-05-05T03:56:10.069Z,100
2023-05-05T03:57:11.767Z,100
2023-05-05T03:58:13.568Z,100
2023-05-05T03:59:15.245Z,100
2023-05-05T04:00:17.095Z,100
2023-05-05T04:01:18.721Z,100
2023-05-05T04:02:20.551Z,100
2023-05-05T04:03:22.664Z,100
2023-05-05T04:04:24.028Z,100
2023-05-05T04:05:25.653Z,100
2023-05-05T04:06:27.391Z,100
2023-05-05T04:07:29.122Z,100
2023-05-05T04:08:30.851Z,100
2023-05-05T04:09:32.628Z,100
2023-05-05T04:10:34.357Z,100
2023-05-05T04:11:36.056Z,100
2023-05-05T04:12:37.799Z,100
2023-05-05T04:13:39.535Z,100
2023-05-05T04:14:41.259Z,100
2023-05-05T04:15:43.029Z,100
2023-05-05T04:16:44.903Z,100
2023-05-05T04:17:46.542Z,100
2023-05-05T04:18:48.185Z,100
2023-05-05T04:19:49.923Z,100
2023-05-05T04:20:51.686Z,100
2023-05-05T04:21:53.480Z,100
2023-05-05T04:22:55.121Z,100
2023-05-05T04:23:56.881Z,100
2023-05-05T04:24:58.613Z,100
2023-05-05T04:26:00.327Z,100
2023-05-05T04:27:02.068Z,100
2023-05-05T04:28:03.826Z,100
2023-05-05T04:29:05.630Z,100
2023-05-05T04:30:07.469Z,100
2023-05-05T04:31:09.042Z,100
2023-05-05T04:32:10.751Z,100
2023-05-05T04:33:12.461Z,100
2023-05-05T04:34:14.193Z,100
2023-05-05T04:35:15.950Z,100
2023-05-05T04:36:17.667Z,100
2023-05-05T04:37:19.528Z,100
2023-05-05T04:38:21.213Z,100
2023-05-05T04:39:22.871Z,100
2023-05-05T04:40:24.602Z,100
2023-05-05T04:41:28.182Z,100
2023-05-05T04:42:28.072Z,100
2023-05-05T04:43:29.803Z,100
2023-05-05T04:44:31.529Z,100
2023-05-05T04:45:33.260Z,100
2023-05-05T04:46:35.096Z,100
2023-05-05T04:47:36.763Z,100
2023-05-05T04:48:38.461Z,100
2023-05-05T04:49:40.198Z,100
2023-05-05T04:50:41.946Z,100
2023-05-05T04:51:43.686Z,100
2023-05-05T04:52:45.405Z,100
2023-05-05T04:53:47.138Z,100
2023-05-05T04:54:48.884Z,100
2023-05-05T04:55:50.606Z,100
2023-05-05T04:56:52.341Z,100
2023-05-05T04:57:54.079Z,100
2023-05-05T04:58:55.827Z,100
2023-05-05T04:59:57.537Z,100
2023-05-05T05:00:59.270Z,100
2023-05-05T05:02:01.242Z,100
2023-05-05T05:03:02.829Z,100
2023-05-05T05:04:04.609Z,100
2023-05-05T05:05:06.391Z,100
2023-05-05T05:06:07.957Z,100
2023-05-05T05:07:09.721Z,100
2023-05-05T05:08:11.412Z,100
2023-05-05T05:09:13.267Z,100
2023-05-05T05:10:14.895Z,100
2023-05-05T05:11:16.621Z,100
2023-05-05T05:12:18.366Z,100
2023-05-05T05:13:20.181Z,100
2023-05-05T05:14:21.868Z,100
2023-05-05T05:15:23.571Z,100
2023-05-05T05:16:25.374Z,100
2023-05-05T05:17:27.078Z,100
2023-05-05T05:18:28.830Z,100
2023-05-05T05:19:30.492Z,100
2023-05-05T05:20:32.216Z,100
2023-05-05T05:21:39.803Z,100
2023-05-05T05:22:40.858Z,100
2023-05-05T05:23:42.588Z,100
2023-05-05T05:24:44.299Z,100
2023-05-05T05:25:46.031Z,100
2023-05-05T05:26:47.777Z,100
2023-05-05T05:27:58.522Z,100
2023-05-05T05:28:51.245Z,100
2023-05-05T05:29:52.969Z,100
2023-05-05T05:30:54.694Z,100
2023-05-05T05:31:56.469Z,100
2023-05-05T05:32:58.229Z,100
2023-05-05T05:33:59.905Z,100
2023-05-05T05:35:01.668Z,100
2023-05-05T05:36:03.393Z,100
2023-05-05T05:37:05.134Z,100
2023-05-05T05:38:06.866Z,100
2023-05-05T05:39:08.651Z,100
2023-05-05T05:40:10.486Z,100
2023-05-05T05:41:12.171Z,100
2023-05-05T05:42:13.778Z,100
2023-05-05T05:43:15.502Z,100
2023-05-05T05:44:17.246Z,100
2023-05-05T05:45:18.969Z,100
2023-05-05T05:46:20.786Z,100
2023-05-05T05:47:22.437Z,100
2023-05-05T05:48:24.197Z,100
2023-05-05T05:49:25.923Z,100
2023-05-05T05:50:27.665Z,100
2023-05-05T05:51:29.376Z,100
2023-05-05T05:52:31.119Z,100
2023-05-05T05:53:32.812Z,100
2023-05-05T05:54:34.586Z,100
2023-05-05T05:55:36.334Z,100
2023-05-05T05:56:38.038Z,100
2023-05-05T05:57:39.786Z,100
2023-05-05T05:58:41.512Z,100
2023-05-05T05:59:43.250Z,100
2023-05-05T06:00:45.011Z,100
2023-05-05T06:01:46.732Z,100
2023-05-05T06:03:00.882Z,100
2023-05-05T06:04:05.675Z,100
2023-05-05T06:05:07.388Z,100
2023-05-05T06:06:09.083Z,100
2023-05-05T06:07:10.812Z,100
2023-05-05T06:08:12.552Z,100
2023-05-05T06:09:14.289Z,100
2023-05-05T06:10:27.413Z,100
2023-05-05T06:11:17.760Z,100
2023-05-05T06:12:19.510Z,100
2023-05-05T06:13:21.237Z,100
2023-05-05T06:14:22.969Z,100
2023-05-05T06:15:24.705Z,100
2023-05-05T06:16:26.600Z,100
2023-05-05T06:17:28.160Z,100
2023-05-05T06:18:29.893Z,100
2023-05-05T06:19:31.804Z,100
2023-05-05T06:20:33.561Z,100
2023-05-05T06:21:35.116Z,100
2023-05-05T06:22:36.837Z,100
2023-05-05T06:23:38.592Z,100
2023-05-05T06:24:40.317Z,100
2023-05-05T06:25:42.028Z,100
2023-05-05T06:26:43.768Z,100
2023-05-05T06:27:45.510Z,100
2023-05-05T06:28:47.247Z,100
2023-05-05T06:29:48.978Z,100
2023-05-05T06:30:50.714Z,100
2023-05-05T06:31:52.615Z,100
2023-05-05T06:32:54.289Z,100
2023-05-05T06:33:55.903Z,100
2023-05-05T06:34:57.752Z,100
2023-05-05T06:35:59.389Z,100
2023-05-05T06:37:01.117Z,100
2023-05-05T06:38:02.852Z,100
2023-05-05T06:39:04.573Z,100
2023-05-05T06:40:06.450Z,100
2023-05-05T06:41:08.059Z,100
2023-05-05T06:42:09.792Z,100
2023-05-05T06:43:11.518Z,100
2023-05-05T06:44:13.268Z,100
2023-05-05T06:45:14.993Z,100
2023-05-05T06:46:16.746Z,100
2023-05-05T06:47:18.474Z,100
2023-05-05T06:48:20.195Z,100
2023-05-05T06:49:21.945Z,100
2023-05-05T06:50:23.657Z,100
2023-05-05T06:51:25.428Z,100
2023-05-05T06:52:27.211Z,100
2023-05-05T06:53:28.890Z,100
2023-05-05T06:54:30.622Z,100
2023-05-05T06:55:32.415Z,100
2023-05-05T06:56:34.084Z,100
2023-05-05T06:57:35.835Z,100
2023-05-05T06:58:37.577Z,100
2023-05-05T06:59:39.427Z,100
2023-05-05T07:00:41.075Z,100
2023-05-05T07:01:42.741Z,100
2023-05-05T07:02:44.709Z,100
2023-05-05T07:03:46.246Z,100
2023-05-05T07:04:47.946Z,100
2023-05-05T07:05:49.904Z,100
2023-05-05T07:06:51.418Z,100
2023-05-05T07:07:53.151Z,100
2023-05-05T07:08:54.900Z,100
2023-05-05T07:09:56.639Z,100
2023-05-05T07:10:58.354Z,100
2023-05-05T07:12:00.169Z,100
2023-05-05T07:13:01.987Z,100
2023-05-05T07:14:03.547Z,100
2023-05-05T07:15:19.248Z,100
2023-05-05T07:16:07.161Z,100
2023-05-05T07:17:08.840Z,100
2023-05-05T07:18:10.523Z,100
2023-05-05T07:19:12.243Z,100
2023-05-05T07:20:13.988Z,100
2023-05-05T07:21:15.695Z,100
2023-05-05T07:22:17.432Z,100
2023-05-05T07:23:19.168Z,100
2023-05-05T07:24:20.915Z,100
2023-05-05T07:25:22.667Z,100
2023-05-05T07:26:24.389Z,100
2023-05-05T07:27:26.105Z,100
2023-05-05T07:28:27.836Z,100
2023-05-05T07:29:29.579Z,100
2023-05-05T07:30:31.316Z,100
2023-05-05T07:31:33.045Z,100
2023-05-05T07:32:34.832Z,100
2023-05-05T07:33:36.576Z,100
2023-05-05T07:34:38.331Z,100
2023-05-05T07:35:39.972Z,100
2023-05-05T07:36:41.705Z,100
2023-05-05T07:37:43.453Z,100
2023-05-05T07:38:45.176Z,100
2023-05-05T07:39:46.912Z,100
2023-05-05T07:40:48.661Z,100
2023-05-05T07:41:50.380Z,100
2023-05-05T07:42:52.125Z,100
2023-05-05T07:43:53.861Z,100
2023-05-05T07:44:55.581Z,100
2023-05-05T07:45:57.360Z,100
2023-05-05T07:46:59.068Z,100
2023-05-05T07:48:00.982Z,100
2023-05-05T07:49:02.525Z,100
2023-05-05T07:50:04.265Z,97.74
2023-05-05T07:51:06.187Z,96.53
2023-05-05T07:52:07.726Z,96.12
2023-05-05T07:53:14.542Z,96.49
2023-05-05T07:54:11.204Z,96.4
2023-05-05T07:55:12.980Z,97.65
2023-05-05T07:56:14.662Z,95.82
2023-05-05T07:57:16.396Z,95.07
2023-05-05T07:58:18.159Z,96.54
2023-05-05T07:59:19.861Z,95.94
2023-05-05T08:00:21.770Z,95.47
2023-05-05T08:01:23.328Z,95.84
2023-05-05T08:02:25.180Z,94.37
2023-05-05T08:03:26.976Z,95.86
2023-05-05T08:04:31.166Z,94.16
2023-05-05T08:05:35.426Z,96.13
2023-05-05T08:06:37.185Z,94.32
2023-05-05T08:07:38.877Z,93.77
2023-05-05T08:08:40.610Z,93.18
2023-05-05T08:09:42.348Z,92.8
2023-05-05T08:10:44.100Z,91.35
2023-05-05T08:11:45.838Z,93.62
2023-05-05T08:12:47.616Z,91.52
2023-05-05T08:13:49.302Z,91.69
2023-05-05T08:14:51.057Z,90.85
2023-05-05T08:15:52.871Z,92.55
2023-05-05T08:16:54.502Z,91.26
2023-05-05T08:17:56.310Z,90.95
2023-05-05T08:18:57.966Z,91.78
2023-05-05T08:19:59.699Z,92.43
2023-05-05T08:21:01.437Z,91.91
2023-05-05T08:22:03.168Z,91.84
2023-05-05T08:23:04.949Z,91.51
2023-05-05T08:24:06.675Z,92.42
2023-05-05T08:25:08.547Z,91.8
2023-05-05T08:26:10.103Z,91.83
2023-05-05T08:27:11.826Z,91.87
2023-05-05T08:28:13.561Z,91.78
2023-05-05T08:29:15.303Z,90.83
2023-05-05T08:30:17.047Z,89.85
2023-05-05T08:31:18.808Z,90.82
2023-05-05T08:32:20.485Z,89.41
2023-05-05T08:33:22.240Z,89.94
2023-05-05T08:34:23.971Z,89.75
2023-05-05T08:35:25.696Z,86.38
2023-05-05T08:36:27.433Z,89.2
2023-05-05T08:37:29.159Z,88.7
2023-05-05T08:38:30.913Z,87.25
2023-05-05T08:39:32.656Z,85.97
2023-05-05T08:40:34.456Z,89.91
2023-05-05T08:41:36.099Z,84.01
2023-05-05T08:42:39.413Z,85.47
2023-05-05T08:43:39.574Z,89.33
2023-05-05T08:44:41.313Z,87.68
2023-05-05T08:45:43.079Z,87.84
2023-05-05T08:46:44.885Z,87.32
2023-05-05T08:47:46.556Z,85.41
2023-05-05T08:48:48.254Z,86.87
2023-05-05T08:49:49.985Z,86.77
2023-05-05T08:50:51.732Z,84.97
2023-05-05T08:51:53.456Z,84.91
2023-05-05T08:52:55.242Z,85.17
2023-05-05T08:53:57.052Z,84.23
2023-05-05T08:54:58.648Z,83.77
2023-05-05T08:56:00.383Z,81.97
2023-05-05T08:57:02.116Z,77.43
2023-05-05T08:58:04.277Z,75.78
2023-05-05T08:59:05.611Z,78.36
2023-05-05T09:00:07.321Z,78.28
2023-05-05T09:01:09.146Z,79.73
2023-05-05T09:02:10.860Z,78.79
2023-05-05T09:03:12.654Z,76.88
2023-05-05T09:04:14.265Z,75.75
2023-05-05T09:05:16.098Z,75.94
2023-05-05T09:06:17.708Z,71.88
2023-05-05T09:07:19.583Z,72.73
2023-05-05T09:08:21.205Z,71.84
2023-05-05T09:09:22.937Z,71.08
2023-05-05T09:10:24.707Z,67.99
2023-05-05T09:11:26.387Z,68.28
2023-05-05T09:12:28.142Z,67.91
2023-05-05T09:13:29.885Z,65.17
2023-05-05T09:14:31.631Z,67.58
2023-05-05T09:15:33.387Z,66.8
2023-05-05T09:16:35.153Z,65.81
2023-05-05T09:17:36.937Z,68.35
2023-05-05T09:18:38.554Z,67.74
2023-05-05T09:19:40.292Z,69.16
2023-05-05T09:20:42.012Z,66.32
2023-05-05T09:21:43.735Z,66.51
2023-05-05T09:22:45.592Z,67.07
2023-05-05T09:23:47.217Z,69.34
2023-05-05T09:24:48.949Z,67.86
2023-05-05T09:25:50.669Z,69.73
2023-05-05T09:26:52.422Z,68.08
2023-05-05T09:27:54.142Z,67.71
2023-05-05T09:28:55.945Z,67.43
2023-05-05T09:29:57.635Z,65.92
2023-05-05T09:30:59.377Z,64.91
2023-05-05T09:32:01.101Z,65.78
2023-05-05T09:33:02.896Z,65
2023-05-05T09:34:04.543Z,65.15
2023-05-05T09:35:06.606Z,64.64
2023-05-05T09:36:08.021Z,66.95
2023-05-05T09:37:09.766Z,65.43
2023-05-05T09:38:11.487Z,65.32
2023-05-05T09:39:13.287Z,66.58
2023-05-05T09:40:14.956Z,66
2023-05-05T09:41:16.697Z,65.3
2023-05-05T09:42:18.426Z,62.96
2023-05-05T09:43:20.207Z,65.33
2023-05-05T09:44:21.901Z,64.76
2023-05-05T09:45:23.627Z,64.14
2023-05-05T09:46:25.434Z,64.07
2023-05-05T09:47:29.875Z,60.19
2023-05-05T09:48:28.873Z,60.64
2023-05-05T09:49:30.557Z,60.26
2023-05-05T09:50:32.391Z,61.71
2023-05-05T09:51:34.058Z,60.12
2023-05-05T09:52:35.802Z,61.96
2023-05-05T09:53:37.519Z,60.79
2023-05-05T09:54:39.246Z,59.59
2023-05-05T09:55:40.965Z,60.97
2023-05-05T09:56:42.692Z,61.12
2023-05-05T09:57:44.441Z,60.34
2023-05-05T09:58:46.215Z,59.9
2023-05-05T09:59:47.893Z,59.86
2023-05-05T10:00:49.637Z,59.22
2023-05-05T10:01:51.460Z,58.02
2023-05-05T10:02:53.274Z,58.08
2023-05-05T10:03:54.829Z,55.66
2023-05-05T10:04:56.756Z,57.5
2023-05-05T10:05:58.296Z,56.82
2023-05-05T10:07:00.069Z,55.72
2023-05-05T10:08:01.773Z,57.83
2023-05-05T10:09:03.500Z,54.95
2023-05-05T10:10:05.349Z,53.52
2023-05-05T10:11:07.005Z,55.5
2023-05-05T10:12:08.701Z,55.17
2023-05-05T10:13:10.493Z,51.45
2023-05-05T10:14:12.176Z,52.21
2023-05-05T10:15:13.917Z,53.82
2023-05-05T10:16:15.666Z,52.16
2023-05-05T10:17:17.390Z,49.97
2023-05-05T10:18:19.174Z,51.55
2023-05-05T10:19:23.020Z,53.42
2023-05-05T10:21:03.640Z,52.01
2023-05-05T10:22:05.505Z,52.72
2023-05-05T10:23:07.197Z,52.38
2023-05-05T10:24:08.856Z,50.9
2023-05-05T10:25:10.604Z,52.49
2023-05-05T10:26:12.551Z,52.82
2023-05-05T10:27:14.080Z,53.46
2023-05-05T10:28:15.797Z,54.63
2023-05-05T10:29:17.541Z,54.45
2023-05-05T10:30:19.305Z,55.4
2023-05-05T10:31:26.531Z,53.49
2023-05-05T10:32:51.194Z,56.33
2023-05-05T10:33:31.801Z,53.88
2023-05-05T10:34:26.236Z,54.03
2023-05-05T10:35:27.980Z,52.91
2023-05-05T10:36:29.689Z,53.57
2023-05-05T10:37:31.410Z,53.27
2023-05-05T10:38:33.286Z,54.87
2023-05-05T10:39:35.027Z,53.3
2023-05-05T10:40:36.628Z,52.61
2023-05-05T10:41:38.386Z,53.15
2023-05-05T10:42:40.088Z,54.59
2023-05-05T10:43:41.843Z,55.11
2023-05-05T10:44:43.562Z,55.24
2023-05-05T10:45:45.424Z,54.3
2023-05-05T10:46:47.029Z,54.2
2023-05-05T10:47:48.857Z,54.65
2023-05-05T10:48:50.664Z,55.23
2023-05-05T10:49:52.378Z,53.57
2023-05-05T10:50:53.943Z,54.43
2023-05-05T10:51:55.720Z,55.62
2023-05-05T10:52:57.422Z,56.67
2023-05-05T10:53:59.190Z,56.04
2023-05-05T10:55:00.890Z,57.14
2023-05-05T10:56:02.735Z,55.53
2023-05-05T10:57:04.357Z,56.97
2023-05-05T10:58:06.121Z,57.47
2023-05-05T10:59:07.849Z,56.68
2023-05-05T11:00:09.755Z,51.48
2023-05-05T11:01:11.327Z,55.04
2023-05-05T11:02:13.038Z,55.37
2023-05-05T11:03:14.915Z,55.55
2023-05-05T11:04:16.578Z,54.47
2023-05-05T11:05:18.632Z,53.85
2023-05-05T11:06:19.962Z,55.99
2023-05-05T11:07:21.697Z,54.02
2023-05-05T11:08:23.509Z,55.94
2023-05-05T11:09:25.501Z,56.1
2023-05-05T11:10:26.927Z,58.22
2023-05-05T11:11:28.639Z,59.05
2023-05-05T11:12:30.588Z,58.03
2023-05-05T11:13:32.086Z,58.46
2023-05-05T11:14:34.060Z,58.63
2023-05-05T11:15:35.572Z,53.05
2023-05-05T11:16:37.411Z,53.76
2023-05-05T11:17:39.118Z,52.53
2023-05-05T11:18:40.784Z,51.94
2023-05-05T11:19:42.513Z,51.96
2023-05-05T11:20:44.252Z,52.43
2023-05-05T11:21:45.961Z,54.03
2023-05-05T11:22:47.703Z,54.57
2023-05-05T11:23:49.446Z,53.71
2023-05-05T11:24:51.188Z,54.32
2023-05-05T11:25:52.913Z,55.48
2023-05-05T11:26:54.794Z,55.78
2023-05-05T11:27:56.409Z,53.84
2023-05-05T11:28:58.127Z,54.84
2023-05-05T11:29:59.849Z,57.1
2023-05-05T11:31:01.763Z,57.8
2023-05-05T11:32:03.313Z,57.65
2023-05-05T11:33:05.197Z,58.01
2023-05-05T11:34:06.813Z,57.73
2023-05-05T11:35:08.533Z,56.7
2023-05-05T11:36:10.705Z,58.26
2023-05-05T11:37:11.990Z,57.62
2023-05-05T11:38:13.723Z,59.47
2023-05-05T11:39:15.466Z,57.25
2023-05-05T11:40:17.180Z,53.35
2023-05-05T11:41:18.911Z,54.44
2023-05-05T11:42:20.653Z,55.06
2023-05-05T11:43:22.493Z,54.58
2023-05-05T11:44:24.226Z,54.58
2023-05-05T11:45:25.872Z,53.98
2023-05-05T11:46:27.776Z,53.17
2023-05-05T11:47:29.427Z,54.64
2023-05-05T11:48:31.059Z,51.91
2023-05-05T11:49:32.785Z,54.5
2023-05-05T11:50:34.632Z,54.07
2023-05-05T11:51:36.254Z,49.17
2023-05-05T11:52:37.994Z,49.87
2023-05-05T11:53:39.732Z,46.17
2023-05-05T11:54:41.455Z,45.88
2023-05-05T11:55:43.211Z,47.66
2023-05-05T11:56:44.943Z,47.95
2023-05-05T11:57:46.659Z,48.3
2023-05-05T11:58:48.421Z,50.4
2023-05-05T11:59:50.128Z,50.69
2023-05-05T12:00:51.887Z,46.43
2023-05-05T12:01:53.634Z,46.66
2023-05-05T12:02:55.488Z,47
2023-05-05T12:11:57.704Z,46.39
2023-05-05T12:12:58.632Z,48.06
2023-05-05T12:14:00.313Z,47.81
2023-05-05T12:15:02.072Z,48.46
2023-05-05T12:16:03.895Z,48.11
2023-05-05T12:17:05.548Z,50.18
2023-05-05T12:18:07.323Z,49.86
2023-05-05T12:19:08.974Z,50.88
2023-05-05T12:20:11.342Z,48.36
2023-05-05T12:21:12.452Z,49.91
2023-05-05T12:22:14.186Z,50.51
2023-05-05T12:23:15.932Z,47.41
2023-05-05T12:24:17.667Z,44.3
2023-05-05T12:25:32.773Z,43.77
2023-05-05T12:26:34.542Z,44.83
2023-05-05T12:27:36.378Z,45.06
2023-05-05T12:28:38.042Z,44.18
2023-05-05T12:29:39.752Z,44.62
2023-05-05T12:30:41.479Z,44.7
2023-05-05T12:31:43.242Z,44.44
2023-05-05T12:32:44.988Z,45.83
2023-05-05T12:33:47.953Z,45.71
2023-05-05T12:34:48.416Z,47.44
2023-05-05T12:35:50.147Z,46.8
2023-05-05T12:36:51.889Z,46.78
2023-05-05T12:37:53.601Z,50.18
2023-05-05T12:38:55.445Z,49.24
2023-05-05T12:39:57.092Z,49.23
2023-05-05T12:40:58.818Z,50.71
2023-05-05T12:42:00.545Z,50.5
2023-05-05T12:43:02.295Z,51.14
2023-05-05T12:44:04.025Z,50.13
2023-05-05T12:45:05.758Z,49.74
2023-05-05T12:46:07.534Z,49.98
2023-05-05T12:47:09.227Z,50.19
2023-05-05T12:48:10.943Z,49.55
2023-05-05T12:49:12.679Z,50.12
2023-05-05T12:50:14.439Z,50.76
2023-05-05T12:51:16.160Z,51.39
2023-05-05T12:52:17.875Z,49.27
2023-05-05T12:53:19.617Z,51.22
2023-05-05T12:54:21.354Z,49.14
2023-05-05T12:55:23.102Z,47.05
2023-05-05T12:56:24.880Z,47.37
2023-05-05T12:57:26.552Z,47.45
2023-05-05T12:58:28.294Z,47.6
2023-05-05T12:59:30.028Z,46.59
2023-05-05T13:00:31.773Z,49.35
2023-05-05T13:01:33.568Z,45.98
2023-05-05T13:02:35.344Z,45.16
2023-05-05T13:03:37.067Z,46.56
2023-05-05T13:04:38.725Z,43.93
2023-05-05T13:05:40.417Z,44.42
2023-05-05T13:06:42.155Z,43.85
2023-05-05T13:07:43.875Z,44.37
2023-05-05T13:08:45.636Z,44.33
2023-05-05T13:09:47.466Z,43.87
2023-05-05T13:10:49.077Z,45.69
2023-05-05T13:11:50.828Z,44.68
2023-05-05T13:12:52.640Z,44.83
2023-05-05T13:13:54.279Z,44.98
2023-05-05T13:14:56.013Z,45.53
2023-05-05T13:15:57.832Z,45.71
2023-05-05T13:16:59.510Z,44.87
2023-05-05T13:18:01.487Z,45.05
2023-05-05T13:19:03.009Z,45.74
2023-05-05T13:20:04.686Z,46.12
2023-05-05T13:21:06.406Z,45.76
2023-05-05T13:22:08.168Z,44.68
2023-05-05T13:23:09.878Z,44.5
2023-05-05T13:24:28.042Z,44.5
2023-05-05T13:25:13.351Z,44.16
2023-05-05T13:26:15.073Z,43.42
2023-05-05T13:27:16.822Z,43.62
2023-05-05T13:28:18.554Z,42.41
2023-05-05T13:29:20.313Z,41.57
2023-05-05T13:30:22.031Z,41.77
2023-05-05T13:31:23.858Z,43.28
2023-05-05T13:32:25.552Z,42.95
2023-05-05T13:33:27.214Z,43.21
2023-05-05T13:34:29.022Z,43
2023-05-05T13:35:30.700Z,43.77
2023-05-05T13:36:32.424Z,43.73
2023-05-05T13:37:34.163Z,42.28
2023-05-05T13:38:35.976Z,42.99
2023-05-05T13:39:37.648Z,43.79
2023-05-05T13:40:39.395Z,43.8
2023-05-05T13:41:41.104Z,44.21
2023-05-05T13:42:42.896Z,44.94
2023-05-05T13:43:44.578Z,45.35
2023-05-05T13:44:46.295Z,44.77
2023-05-05T13:45:48.031Z,45.94
2023-05-05T13:46:49.899Z,46.4
2023-05-05T13:47:51.531Z,46.67
2023-05-05T13:48:56.594Z,45.94
2023-05-05T13:49:54.950Z,47.81
2023-05-05T13:50:56.690Z,46.39
2023-05-05T13:51:58.438Z,47.44
2023-05-05T13:53:00.175Z,46.92
2023-05-05T13:54:01.919Z,46.79
2023-05-05T13:55:03.670Z,47.18
2023-05-05T13:56:05.622Z,47.69
2023-05-05T13:57:07.104Z,49.46
2023-05-05T13:58:08.815Z,50.04